• Join FlightAware (Why Join?)
  • Login
  • US Flag 
03:05PM EDT


 

Airport Tracker/Info


-or-


 

Live Flight TrackerFlight Track Log ✈ N246AE ✈ 03-Aug-2013 ✈ KCRE - KHPN

Flight Track Log - Related Links

Times and Time Zones

All times are in EDT time to prevent confusion due to time zone crossing. See the N246AE flight status page for this flight to view local times or setup timezone preferences in your user account.

Time Position Orientation Groundspeed Altitude Reporting Facility
EDT Latitude Longitude Course Direction KTS MPH feet Rate Location/Type
09:30AM 33.9469 -78.6594 22° Northeast 129 148 5,200  Level Jacksonville Center
09:31AM 33.9778 -78.6428 24° Northeast 136 157 6,000 780 Climbing Jacksonville Center
09:32AM 34.0384 -78.5725 23° Northeast  Level FlightAware Approximate
09:32AM 34.0103 -78.6239 26° Northeast 130 150 6,800  Level Jacksonville Center
09:33AM 34.0857 -78.5429 29° Northeast  Level FlightAware Approximate
09:33AM 34.0450 -78.5994 30° Northeast 130 150 7,600  Level Jacksonville Center
09:34AM 34.1325 -78.5117 29° Northeast  Level FlightAware Approximate
09:34AM 34.0778 -78.5803 26° Northeast 130 150 8,300  Level Jacksonville Center
09:34AM 34.0994 -78.5689 24° Northeast 130 150 8,800 660 Climbing Washington Center
09:35AM 34.1775 -78.4779 22° Northeast  Level FlightAware Approximate
09:35AM 34.1353 -78.5450 29° Northeast 136 157 9,400  Level Washington Center
09:36AM 34.1694 -78.5236 27° Northeast 136 157 10,100 600 Climbing Washington Center
09:37AM 34.2033 -78.5022 28° Northeast 136 157 10,700 420 Climbing Washington Center
09:38AM 34.2414 -78.4783 27° Northeast 136 157 11,000 120 Climbing Washington Center
09:39AM 34.2836 -78.4522 27° Northeast 146 168 11,000  Level Washington Center
09:40AM 34.3281 -78.4236 28° Northeast 156 180 11,000  Level Washington Center
09:41AM 34.3706 -78.3975 27° Northeast 162 186 11,100  Climbing Washington Center
09:42AM 34.4128 -78.3711 27° Northeast 167 192 11,100 -60 Level Washington Center
09:43AM 34.4594 -78.3450 25° Northeast 167 192 11,000 -60 Descending Washington Center
09:44AM 34.5017 -78.3161 29° Northeast 167 192 11,000  Level Washington Center
09:45AM 34.5461 -78.2875 28° Northeast 167 192 11,100  Climbing Washington Center
09:46AM 34.5908 -78.2586 28° Northeast 172 198 11,000 -60 Descending Washington Center
09:47AM 34.6308 -78.2322 28° Northeast 177 204 11,000  Level Washington Center
09:48AM 34.6753 -78.2033 28° Northeast 177 204 11,000  Level Washington Center
09:49AM 34.7239 -78.1744 26° Northeast 177 204 11,000  Level Washington Center
09:50AM 34.7664 -78.1456 29° Northeast 177 204 11,000  Level Washington Center
09:51AM 34.8108 -78.1167 28° Northeast 177 204 11,000  Level Washington Center
09:52AM 34.8489 -78.0900 30° Northeast 182 209 11,000  Level Washington Center
09:53AM 34.8911 -78.0633 27° Northeast 177 204 11,100  Climbing Washington Center
09:54AM 34.9356 -78.0344 28° Northeast 177 204 11,100 -60 Level Washington Center
09:55AM 34.9800 -78.0078 26° Northeast 177 204 11,000 -60 Descending Washington Center
09:56AM 35.0222 -77.9786 29° Northeast 177 204 11,000  Level Washington Center
09:57AM 35.0667 -77.9469 30° Northeast 177 204 11,000  Level Washington Center
09:58AM 35.1089 -77.9203 27° Northeast 177 204 11,000  Level Washington Center
09:59AM 35.1553 -77.8936 25° Northeast 177 204 11,000  Level Washington Center
10:00AM 35.1978 -77.8644 29° Northeast 177 204 11,000  Level Washington Center
10:01AM 35.2400 -77.8375 28° Northeast 177 204 11,000  Level Washington Center
10:02AM 35.2842 -77.8083 28° Northeast 177 204 11,000  Level Washington Center
10:03AM 35.3264 -77.7814 28° Northeast 177 204 11,100  Climbing Washington Center
10:04AM 35.3708 -77.7522 28° Northeast 177 204 11,100  Level Washington Center
10:05AM 35.4131 -77.7253 27° Northeast 177 204 11,100 -60 Level Washington Center
10:06AM 35.4575 -77.6958 28° Northeast 177 204 11,000 -60 Descending Washington Center
10:07AM 35.5017 -77.6689 26° Northeast 177 204 11,000  Level Washington Center
10:08AM 35.5439 -77.6394 30° Northeast 177 204 11,000  Level Washington Center
10:09AM 35.5903 -77.6125 25° Northeast 177 204 11,000  Level Washington Center
10:10AM 35.6347 -77.5828 29° Northeast 177 204 11,000  Level Washington Center
10:11AM 35.6789 -77.5558 26° Northeast 177 204 11,100  Climbing Washington Center
10:12AM 35.7189 -77.5261 31° Northeast 177 204 11,000  Descending Washington Center
10:13AM 35.7633 -77.4964 28° Northeast 177 204 11,100  Climbing Washington Center
10:14AM 35.8094 -77.4719 23° Northeast 177 204 11,000  Descending Washington Center
10:15AM 35.8517 -77.4397 32° Northeast 177 204 11,100  Climbing Washington Center
10:16AM 35.8939 -77.4100 30° Northeast 177 204 11,100  Level Washington Center
10:17AM 35.9361 -77.3825 28° Northeast 177 204 11,100  Level Washington Center
10:18AM 35.9803 -77.3553 27° Northeast 177 204 11,100  Level Washington Center
10:19AM 36.0247 -77.3231 30° Northeast 177 204 11,100  Level Washington Center
10:20AM 36.0689 -77.2956 27° Northeast 177 204 11,100  Level Washington Center
10:21AM 36.1131 -77.2683 26° Northeast 177 204 11,100  Level Washington Center
10:22AM 36.1572 -77.2411 26° Northeast 177 204 11,100  Level Washington Center
10:23AM 36.2036 -77.2058 32° Northeast 177 204 11,100  Level Washington Center
10:24AM 36.2458 -77.1758 30° Northeast 177 204 11,100  Level Washington Center
10:25AM 36.2900 -77.1483 27° Northeast 172 198 11,100  Level Washington Center
10:26AM 36.3256 -77.1258 27° Northeast 176 203 11,100  Level Washington Center
10:27AM 36.3719 -77.0958 28° Northeast 172 198 11,100  Level Washington Center
10:28AM 36.4119 -77.0708 27° Northeast 177 204 11,100  Level Washington Center
10:29AM 36.4519 -77.0483 24° Northeast 194 223 11,100  Level Washington Center
10:30AM 36.5003 -77.0081 34° Northeast 176 203 11,100  Level Washington Center
10:31AM 36.5339 -76.9853 29° Northeast 176 203 11,100  Level Washington Center
10:32AM 36.5781 -76.9550 29° Northeast 180 207 11,100  Level Washington Center
10:33AM 36.6244 -76.9247 28° Northeast 180 207 11,100  Level Washington Center
10:34AM 36.6769 -76.8867 30° Northeast 177 204 11,100  Level Washington Center
10:35AM 36.7231 -76.8592 26° Northeast 177 204 11,100  Level Washington Center
10:36AM 36.7650 -76.8339 26° Northeast 184 212 11,100  Level Washington Center
10:37AM 36.8114 -76.8008 30° Northeast 182 209 11,100  Level Washington Center
10:38AM 36.8556 -76.7703 29° Northeast 182 209 11,100  Level Washington Center
10:39AM 36.9039 -76.7372 29° Northeast 181 208 11,100  Level Washington Center
10:40AM 36.9458 -76.7094 28° Northeast 179 206 11,100  Level Washington Center
10:41AM 36.9897 -76.6789 29° Northeast 181 208 11,100  Level Washington Center
10:42AM 37.0317 -76.6508 28° Northeast 180 207 11,100  Level Washington Center
10:43AM 37.0697 -76.6200 33° Northeast 182 209 11,100  Level Washington Center
10:44AM 37.1136 -76.5894 29° Northeast 182 209 11,100  Level Washington Center
10:45AM 37.1578 -76.5586 29° Northeast 182 209 11,100  Level Washington Center
10:46AM 37.2017 -76.5281 29° Northeast 182 209 11,100  Level Washington Center
10:47AM 37.2458 -76.4997 27° Northeast 182 209 11,100  Level Washington Center
10:48AM 37.2897 -76.4689 29° Northeast 198 228 11,100  Level Washington Center
10:49AM 37.3317 -76.4381 30° Northeast 188 216 11,100  Level Washington Center
10:50AM 37.3758 -76.4072 29° Northeast 178 205 11,100  Level Washington Center
10:51AM 37.4197 -76.3817 25° Northeast 178 205 11,100  Level Washington Center
10:52AM 37.4617 -76.3481 32° Northeast 178 205 11,100  Level Washington Center
10:53AM 37.5056 -76.3197 27° Northeast 178 205 11,100  Level Washington Center
10:54AM 37.5475 -76.2886 30° Northeast 178 205 11,100  Level Washington Center
10:55AM 37.5914 -76.2628 25° Northeast 173 199 11,100  Level Washington Center
10:56AM 37.6292 -76.2342 31° Northeast 173 199 11,100  Level Washington Center
10:57AM 37.6711 -76.2058 28° Northeast 178 205 11,100  Level Washington Center
10:58AM 37.7150 -76.1772 27° Northeast 178 205 11,100  Level Washington Center
10:59AM 37.7653 -76.1461 26° Northeast 178 205 11,100  Level Washington Center
11:00AM 37.8008 -76.1147 35° Northeast 178 205 11,100 -60 Level Washington Center
11:01AM 37.8425 -76.0861 28° Northeast 173 199 11,000 -60 Descending Washington Center
11:02AM 37.8803 -76.0442 41° Northeast 173 199 11,000  Level Washington Center
11:03AM 37.9222 -76.0050 36° Northeast 173 199 11,000  Level Washington Center
11:04AM 37.9578 -75.9658 41° Northeast 173 199 11,000  Level Washington Center
11:05AM 37.9997 -75.9264 37° Northeast 173 199 11,000  Level Washington Center
11:06AM 38.0372 -75.8844 41° Northeast 173 199 11,000  Level Washington Center
11:07AM 38.0792 -75.8475 35° Northeast 178 205 11,000  Level Washington Center
11:08AM 38.1208 -75.8031 40° Northeast 178 205 11,000  Level Washington Center
11:09AM 38.1542 -75.7661 41° Northeast 178 205 11,000  Level Washington Center
11:10AM 38.2003 -75.7211 37° Northeast 178 205 11,000  Level Washington Center
11:11AM 38.2439 -75.6842 34° Northeast 178 205 11,000  Level Washington Center
11:12AM 38.2775 -75.6419 45° Northeast 168 193 11,000  Level Washington Center
11:13AM 38.3128 -75.6050 39° Northeast 168 193 11,100  Climbing Washington Center
11:14AM 38.3567 -75.5625 37° Northeast 176 203 11,000 -60 Descending Washington Center
11:15AM 38.3961 -75.5256 36° Northeast 176 203 11,000  Level Washington Center
11:16AM 38.4358 -75.4856 38° Northeast 176 203 11,100  Climbing Washington Center
11:17AM 38.4753 -75.4433 40° Northeast 176 203 11,000 -60 Descending Washington Center
11:18AM 38.5128 -75.4033 40° Northeast 176 203 11,000  Level Washington Center
11:19AM 38.5544 -75.3633 37° Northeast 176 203 11,000  Level Washington Center
11:20AM 38.5939 -75.3233 38° Northeast 176 203 11,100  Climbing Washington Center
11:21AM 38.6336 -75.2808 40° Northeast 176 203 11,100  Level Washington Center
11:22AM 38.6750 -75.2381 39° Northeast 176 203 11,100 -60 Level Washington Center
11:23AM 38.7144 -75.1925 42° Northeast 181 208 11,000 -60 Descending Washington Center
11:24AM 38.7561 -75.1550 35° Northeast 181 208 11,000  Level Washington Center
11:25AM 38.7933 -75.1042 47° Northeast 186 214 11,000  Level Washington Center
11:26AM 38.8308 -75.0561 45° Northeast 191 220 11,100  Climbing Washington Center
11:27AM 38.8681 -75.0050 47° Northeast 191 220 11,000 -60 Descending Washington Center
11:28AM 38.9075 -74.9567 44° Northeast 191 220 11,000  Level Washington Center
11:29AM 38.9467 -74.9083 44° Northeast 191 220 11,100  Climbing Washington Center
11:30AM 38.9839 -74.8572 47° Northeast 196 226 11,100  Level Washington Center
11:31AM 39.0231 -74.8033 47° Northeast 196 226 11,100  Level Washington Center
11:32AM 39.0625 -74.7550 44° Northeast 196 226 11,100  Level Washington Center
11:33AM 39.1017 -74.7064 44° Northeast 196 226 11,100 -60 Level Washington Center
11:34AM 39.1389 -74.6550 47° Northeast 196 226 11,000  Descending Washington Center
11:35AM 39.1758 -74.6036 47° Northeast 196 226 11,100  Climbing Washington Center
11:36AM 39.2150 -74.5522 45° Northeast 196 226 11,100 -60 Level Washington Center
11:37AM 39.2522 -74.5008 47° Northeast 196 226 11,000  Descending Washington Center
11:38AM 39.2914 -74.4544 43° Northeast 196 226 11,100  Climbing Washington Center
11:39AM 39.3283 -74.3975 50° Northeast 196 226 11,100  Level Washington Center
11:41AM 39.3975 -74.3089 45° Northeast 194 223 11,100  Level New York Center
11:42AM 39.4367 -74.2600 44° Northeast 194 223 11,100  Level New York Center
11:43AM 39.4758 -74.2053 47° Northeast 202 232 11,100  Level New York Center
11:44AM 39.5169 -74.1508 46° Northeast 202 232 11,100  Level New York Center
11:45AM 39.5583 -74.0908 48° Northeast 202 232 11,100  Level New York Center
11:46AM 39.5972 -74.0389 46° Northeast 202 232 11,100  Level New York Center
11:47AM 39.6317 -73.9972 43° Northeast 197 227 11,100  Level New York Center
11:48AM 39.6706 -73.9478 44° Northeast 197 227 11,100  Level New York Center
11:49AM 39.7117 -73.8958 44° Northeast 189 217 11,100  Level New York Center
11:50AM 39.7506 -73.8461 45° Northeast 189 217 11,100  Level New York Center
11:51AM 39.7872 -73.7964 46° Northeast 189 217 11,100  Level New York Center
11:52AM 39.8197 -73.7519 46° Northeast 189 217 11,100  Level New York Center
11:53AM 39.8586 -73.6994 46° Northeast 189 217 11,100  Level New York Center
11:54AM 39.8931 -73.6494 48° Northeast 189 217 11,100  Level New York Center
11:55AM 39.9361 -73.6000 41° Northeast 189 217 11,200  Climbing New York Center
11:56AM 39.9783 -73.5664 31° Northeast 182 209 11,200 -60 Level New York Center
11:57AM 40.0239 -73.5792 348° North 152 175 11,100  Descending New York Center
11:58AM 40.0678 -73.5781 North 152 175 11,200  Climbing New York Center
11:59AM 40.1158 -73.5719 North 162 186 11,100 -300 Descending New York Center
12:00PM 40.1661 -73.5631 North 170 196 10,600 -540 Descending New York Center
12:01PM 40.2164 -73.5517 10° North 181 208 10,100 -540 Descending New York Center
12:02PM 40.2686 -73.5428 North 181 208 9,600 -540 Descending New York Center
12:03PM 40.3189 -73.5367 North 181 208 9,100 -600 Descending New York Center
12:04PM 40.3731 -73.5308 North 181 208 8,500 -540 Descending New York Center
12:05PM 40.4233 -73.5247 North 181 208 8,100 -480 Descending New York Center
12:06PM 40.4758 -73.5131 10° North 181 208 7,600 -600 Descending New York Center
12:07PM 40.5278 -73.5097 North 181 208 7,000 -600 Descending New York Center
12:08PM 40.5800 -73.5064 North 186 214 6,400 -660 Descending New York Center
12:09PM 40.6342 -73.5058 360° North 186 214 5,800 -600 Descending New York Center
12:10PM 40.6864 -73.5050 North 181 208 5,300 -360 Descending New York Center
12:11PM 40.7364 -73.5044 360° North 181 208 5,100 -240 Descending New York Center
12:12PM 40.8000 -73.5000 North 179 206 4,800 -480 Descending New York TRACON
12:13PM 40.8500 -73.5000 360° North 188 216 4,100 -720 Descending New York TRACON
12:14PM 40.9000 -73.5000 360° North 182 209 3,400 -780 Descending New York TRACON
12:15PM 40.9333 -73.5500 311° West 167 192 2,600 -600 Descending New York TRACON
12:16PM 40.9500 -73.6000 294° West 160 184 2,200 -360 Descending New York TRACON
12:17PM 40.9833 -73.6333 323° Northwest 165 190 1,900 -540 Descending New York TRACON
12:19PM 41.0500 -73.7000 323° Northwest 113 130 700 -600 Descending New York TRACON
12:21PM 41.0667 -73.7000 346° North  Level FlightAware Approximate
12:28PM 41.0669 -73.7076 346° North  Level Estimated
12:29PM 41.0667 -73.7000 346° North  Level FlightAware Approximate